createdAt,value
2018-01-30T00:00:17.561Z,1.80
2018-01-30T00:02:45.881Z,1.70
2018-01-30T00:05:14.223Z,1.40
2018-01-30T00:07:42.529Z,1.30
2018-01-30T00:10:10.865Z,1.80
2018-01-30T00:12:39.181Z,1.12
2018-01-30T00:15:07.509Z,1.35
2018-01-30T00:17:35.825Z,1.33
2018-01-30T00:20:04.161Z,1.80
2018-01-30T00:22:32.468Z,1.70
2018-01-30T00:25:00.810Z,1.85
2018-01-30T00:27:29.126Z,1.45
2018-01-30T00:29:57.457Z,1.87
2018-01-30T00:32:25.768Z,1.73
2018-01-30T00:34:54.110Z,2.72
2018-01-30T00:37:22.428Z,3.83
2018-01-30T00:39:50.762Z,1.67
2018-01-30T00:42:19.081Z,2.45
2018-01-30T00:44:47.406Z,1.40
2018-01-30T00:47:15.721Z,1.90
2018-01-30T00:49:44.062Z,1.60
2018-01-30T00:52:12.374Z,1.70
2018-01-30T00:54:40.711Z,1.77
2018-01-30T00:57:09.025Z,1.83
2018-01-30T00:59:37.358Z,1.87
2018-01-30T01:02:05.675Z,1.48
2018-01-30T01:04:34.014Z,2.60
2018-01-30T01:07:02.333Z,1.75
2018-01-30T01:09:30.669Z,1.73
2018-01-30T01:11:58.985Z,1.85
2018-01-30T01:14:27.325Z,2.17
2018-01-30T01:16:55.645Z,3.92
2018-01-30T01:19:23.985Z,2.50
2018-01-30T01:21:52.310Z,1.55
2018-01-30T01:24:20.650Z,1.67
2018-01-30T01:26:48.965Z,2.35
2018-01-30T01:29:17.311Z,2.90
2018-01-30T01:31:45.719Z,2.85
2018-01-30T01:34:14.034Z,1.67
2018-01-30T01:36:42.347Z,1.30
2018-01-30T01:39:10.687Z,1.75
2018-01-30T01:41:39.001Z,2.75
2018-01-30T01:44:07.347Z,1.85
2018-01-30T01:46:35.657Z,3.12
2018-01-30T01:49:03.998Z,1.80
2018-01-30T01:51:32.318Z,1.90
2018-01-30T01:54:00.657Z,1.87
2018-01-30T01:56:28.974Z,1.45
2018-01-30T01:58:57.288Z,3.05
2018-01-30T02:01:25.629Z,1.87
2018-01-30T02:03:53.949Z,2.00
2018-01-30T02:06:22.293Z,2.37
2018-01-30T02:08:50.609Z,2.58
2018-01-30T02:11:18.953Z,2.30
2018-01-30T02:13:47.273Z,1.60
2018-01-30T02:16:15.605Z,2.15
2018-01-30T02:18:43.917Z,1.50
2018-01-30T02:21:12.262Z,5.07
2018-01-30T02:23:40.578Z,2.47
2018-01-30T02:26:08.909Z,2.78
2018-01-30T02:28:37.230Z,2.00
2018-01-30T02:31:05.569Z,2.20
2018-01-30T02:33:33.886Z,2.10
2018-01-30T02:36:02.229Z,2.97
2018-01-30T02:38:30.611Z,2.55
2018-01-30T02:40:58.894Z,2.28
2018-01-30T02:43:27.213Z,2.42
2018-01-30T02:45:55.557Z,3.10
2018-01-30T02:48:23.878Z,2.20
2018-01-30T02:50:52.213Z,2.65
2018-01-30T02:53:20.528Z,3.08
2018-01-30T03:25:27.373Z,2.85
2018-01-30T03:27:55.693Z,3.15
2018-01-30T03:30:24.035Z,3.95
2018-01-30T03:32:52.350Z,2.03
2018-01-30T03:35:20.688Z,2.78
2018-01-30T03:37:49.010Z,3.00
2018-01-30T03:40:17.357Z,2.20
2018-01-30T03:42:45.677Z,2.37
2018-01-30T03:45:14.013Z,3.20
2018-01-30T03:47:42.333Z,2.53
2018-01-30T03:50:10.675Z,2.03
2018-01-30T03:52:38.988Z,2.50
2018-01-30T03:55:07.305Z,2.55
2018-01-30T03:57:35.636Z,3.17
2018-01-30T04:00:03.969Z,3.87
2018-01-30T04:02:32.289Z,2.30
2018-01-30T04:05:00.605Z,3.28
2018-01-30T04:07:28.949Z,3.05
2018-01-30T04:09:57.261Z,1.80
2018-01-30T04:12:25.602Z,2.05
2018-01-30T04:14:53.921Z,1.58
2018-01-30T04:17:22.260Z,1.35
2018-01-30T04:19:50.586Z,2.35
2018-01-30T04:22:18.920Z,3.00
2018-01-30T04:24:47.237Z,1.87
2018-01-30T04:27:15.578Z,2.72
2018-01-30T04:29:43.897Z,3.15
2018-01-30T04:32:12.237Z,1.85
2018-01-30T04:34:40.552Z,2.05
2018-01-30T04:37:08.889Z,2.80
2018-01-30T04:39:38.013Z,1.70
2018-01-30T04:42:06.364Z,1.48
2018-01-30T04:44:34.665Z,2.80
2018-01-30T04:47:03.010Z,1.92
2018-01-30T04:49:31.321Z,1.45
2018-01-30T04:51:59.657Z,1.70
2018-01-30T04:54:27.977Z,3.00
2018-01-30T04:56:56.321Z,1.75
2018-01-30T04:59:24.634Z,2.70
2018-01-30T05:01:52.974Z,2.50
2018-01-30T05:04:21.286Z,3.15
2018-01-30T05:06:49.628Z,2.22
2018-01-30T05:09:17.949Z,3.03
2018-01-30T05:11:46.280Z,2.10
2018-01-30T05:14:14.597Z,1.90
2018-01-30T05:16:42.933Z,1.92
2018-01-30T05:19:11.249Z,2.10
2018-01-30T05:21:39.585Z,3.40
2018-01-30T05:24:07.905Z,2.17
2018-01-30T05:26:36.245Z,2.83
2018-01-30T05:29:04.566Z,2.65
2018-01-30T05:31:32.898Z,1.80
2018-01-30T05:34:01.214Z,3.72
2018-01-30T05:36:29.553Z,2.63
2018-01-30T05:38:57.868Z,2.15
2018-01-30T05:41:26.209Z,2.50
2018-01-30T05:43:54.529Z,2.30
2018-01-30T05:46:22.869Z,1.87
2018-01-30T05:48:51.188Z,3.65
2018-01-30T05:51:19.529Z,1.67
2018-01-30T05:53:47.849Z,3.20
2018-01-30T05:56:16.172Z,1.70
2018-01-30T05:58:44.517Z,2.10
2018-01-30T06:01:12.833Z,2.43
2018-01-30T06:03:41.173Z,2.93
2018-01-30T06:06:09.531Z,2.40
2018-01-30T06:08:37.837Z,2.20
2018-01-30T06:11:06.156Z,2.30
2018-01-30T06:13:34.504Z,3.23
2018-01-30T06:16:02.841Z,1.63
2018-01-30T06:18:31.189Z,1.87
2018-01-30T06:20:59.509Z,1.73
2018-01-30T06:23:27.849Z,2.27
2018-01-30T06:25:56.282Z,2.10
2018-01-30T06:28:24.581Z,2.60
2018-01-30T06:30:52.901Z,1.93
2018-01-30T06:33:21.246Z,3.10
2018-01-30T06:35:49.573Z,3.10
2018-01-30T06:38:17.914Z,2.40
2018-01-30T06:40:46.233Z,4.73
2018-01-30T06:43:14.581Z,2.93
2018-01-30T06:45:42.906Z,2.30
2018-01-30T06:48:11.253Z,1.90
2018-01-30T06:50:39.569Z,4.23
2018-01-30T06:53:07.941Z,2.77
2018-01-30T06:55:36.296Z,2.97
2018-01-30T06:58:04.637Z,4.10
2018-01-30T07:00:32.953Z,3.10
2018-01-30T07:03:01.293Z,4.60
2018-01-30T07:05:29.622Z,3.90
2018-01-30T07:07:57.965Z,4.50
2018-01-30T07:10:28.258Z,4.17
2018-01-30T07:12:56.798Z,3.93
2018-01-30T07:15:25.125Z,5.17
2018-01-30T07:17:53.818Z,3.53
2018-01-30T07:20:22.133Z,4.40
2018-01-30T07:22:50.474Z,3.93
2018-01-30T07:25:18.797Z,3.27
2018-01-30T07:27:47.136Z,3.33
2018-01-30T07:30:15.466Z,5.03
2018-01-30T07:32:43.802Z,5.10
2018-01-30T07:35:12.129Z,3.27
2018-01-30T07:37:41.435Z,4.15
2018-01-30T07:40:09.716Z,5.93
2018-01-30T07:42:38.061Z,6.80
2018-01-30T07:45:06.389Z,4.53
2018-01-30T07:47:34.728Z,4.70
2018-01-30T07:50:03.045Z,4.73
2018-01-30T07:52:31.385Z,5.18
2018-01-30T07:54:59.697Z,3.80
2018-01-30T07:57:28.040Z,4.35
2018-01-30T07:59:56.354Z,4.20
2018-01-30T08:02:24.677Z,5.50
2018-01-30T08:04:53.022Z,4.55
2018-01-30T08:07:21.336Z,6.00
2018-01-30T08:09:49.685Z,5.55
2018-01-30T08:12:18.001Z,4.43
2018-01-30T08:14:46.336Z,5.97
2018-01-30T08:17:14.668Z,4.00
2018-01-30T08:19:48.894Z,4.60
2018-01-30T08:22:20.414Z,6.05
2018-01-30T08:24:48.758Z,4.43
2018-01-30T08:27:17.076Z,4.47
2018-01-30T08:29:45.418Z,5.50
2018-01-30T08:32:14.598Z,5.35
2018-01-30T08:34:42.942Z,3.85
2018-01-30T08:37:11.266Z,4.47
2018-01-30T08:39:39.606Z,3.97
2018-01-30T08:42:08.249Z,5.15
2018-01-30T08:44:36.589Z,4.10
2018-01-30T08:47:04.913Z,3.33
2018-01-30T08:49:33.253Z,4.28
2018-01-30T08:52:01.572Z,4.17
2018-01-30T08:54:29.917Z,4.10
2018-01-30T08:56:58.266Z,6.43
2018-01-30T08:59:26.598Z,5.00
2018-01-30T09:01:54.913Z,4.60
2018-01-30T09:04:23.253Z,5.63
2018-01-30T09:06:51.573Z,4.00
2018-01-30T09:09:19.913Z,5.00
2018-01-30T09:11:48.238Z,4.43
2018-01-30T09:14:16.577Z,5.50
2018-01-30T09:16:44.903Z,4.70
2018-01-30T09:19:13.245Z,4.03
2018-01-30T09:21:41.566Z,5.47
2018-01-30T09:24:09.908Z,4.07
2018-01-30T09:26:38.229Z,3.90
2018-01-30T09:29:06.573Z,4.55
2018-01-30T09:31:34.901Z,4.70
2018-01-30T09:34:03.237Z,4.10
2018-01-30T09:36:31.558Z,5.07
2018-01-30T09:38:59.897Z,4.83
2018-01-30T09:41:28.218Z,3.90
2018-01-30T09:43:56.564Z,3.90
2018-01-30T09:46:24.881Z,4.32
2018-01-30T09:48:53.223Z,4.90
2018-01-30T09:51:21.537Z,3.75
2018-01-30T09:53:49.882Z,4.50
2018-01-30T09:56:18.202Z,5.37
2018-01-30T09:58:46.550Z,4.27
2018-01-30T10:01:14.870Z,6.40
2018-01-30T10:03:43.230Z,6.25
2018-01-30T10:06:11.533Z,5.20
2018-01-30T10:08:39.877Z,6.60
2018-01-30T10:11:08.217Z,6.60
2018-01-30T10:13:36.541Z,13.50
2018-01-30T10:16:04.891Z,9.25
2018-01-30T10:18:33.210Z,4.50
2018-01-30T10:21:01.550Z,5.97
2018-01-30T10:23:29.870Z,4.53
2018-01-30T10:25:58.246Z,4.32
2018-01-30T10:28:26.541Z,5.00
2018-01-30T10:30:54.875Z,4.43
2018-01-30T10:33:23.873Z,6.70
2018-01-30T10:35:52.209Z,6.23
2018-01-30T10:38:20.533Z,6.53
2018-01-30T10:40:48.878Z,6.73
2018-01-30T10:43:17.206Z,5.65
2018-01-30T10:45:45.549Z,7.33
2018-01-30T10:48:13.865Z,6.65
2018-01-30T10:50:42.205Z,7.00
2018-01-30T10:53:10.525Z,7.18
2018-01-30T10:55:38.865Z,4.90
2018-01-30T10:58:07.189Z,5.90
2018-01-30T11:00:35.540Z,5.95
2018-01-30T11:03:03.857Z,5.33
2018-01-30T11:05:32.201Z,4.72
2018-01-30T11:08:00.529Z,5.70
2018-01-30T11:10:28.869Z,3.47
2018-01-30T11:12:58.468Z,4.72
2018-01-30T11:15:27.113Z,5.90
2018-01-30T11:17:55.436Z,4.00
2018-01-30T11:20:23.777Z,5.37
2018-01-30T11:22:52.097Z,4.70
2018-01-30T11:25:20.442Z,4.67
2018-01-30T11:27:48.761Z,5.50
2018-01-30T11:30:17.105Z,4.50
2018-01-30T11:32:45.894Z,4.40
2018-01-30T11:35:14.233Z,7.07
2018-01-30T11:37:42.557Z,4.57
2018-01-30T11:40:10.904Z,4.80
2018-01-30T11:42:39.218Z,5.87
2018-01-30T11:45:07.565Z,4.90
2018-01-30T11:47:35.882Z,5.40
2018-01-30T11:50:04.227Z,4.37
2018-01-30T11:52:32.669Z,4.93
2018-01-30T11:55:01.011Z,5.83
2018-01-30T11:57:29.328Z,3.93
2018-01-30T11:59:57.669Z,6.30
2018-01-30T12:02:25.993Z,6.07
2018-01-30T12:04:54.339Z,5.47
2018-01-30T12:07:22.662Z,6.43
2018-01-30T12:09:51.009Z,5.90
2018-01-30T12:12:20.344Z,5.65
2018-01-30T12:14:48.666Z,5.50
2018-01-30T12:17:17.009Z,4.40
2018-01-30T12:19:45.333Z,7.33
2018-01-30T12:22:13.678Z,6.43
2018-01-30T12:24:42.001Z,5.03
2018-01-30T12:27:10.345Z,5.90
2018-01-30T12:29:38.665Z,5.23
2018-01-30T12:32:07.006Z,5.20
2018-01-30T12:34:35.326Z,5.70
2018-01-30T12:37:03.669Z,5.53
2018-01-30T12:39:31.990Z,9.10
2018-01-30T12:42:00.334Z,6.20
2018-01-30T12:44:28.656Z,6.33
2018-01-30T12:46:56.997Z,5.35
2018-01-30T12:49:25.340Z,5.10
2018-01-30T12:51:53.681Z,5.27
2018-01-30T12:54:22.025Z,5.10
2018-01-30T12:56:50.350Z,5.20
2018-01-30T12:59:18.671Z,5.33
2018-01-30T13:01:47.027Z,5.70
2018-01-30T13:04:15.341Z,4.70
2018-01-30T13:06:43.685Z,5.40
2018-01-30T13:09:12.370Z,4.80
2018-01-30T13:11:40.885Z,4.47
2018-01-30T13:14:09.245Z,7.23
2018-01-30T13:16:37.620Z,5.33
2018-01-30T13:19:05.920Z,5.87
2018-01-30T13:21:34.305Z,4.10
2018-01-30T13:24:02.621Z,7.30
2018-01-30T13:26:31.897Z,4.67
2018-01-30T13:29:00.209Z,5.83
2018-01-30T13:31:28.550Z,5.90
2018-01-30T13:33:56.874Z,5.33
2018-01-30T13:36:26.200Z,4.87
2018-01-30T13:38:54.535Z,5.60
2018-01-30T13:41:22.868Z,6.00
2018-01-30T13:43:51.186Z,6.50
2018-01-30T13:46:19.529Z,6.00
2018-01-30T13:48:47.858Z,6.30
2018-01-30T13:51:16.203Z,7.23
2018-01-30T13:53:44.537Z,6.40
2018-01-30T13:56:12.886Z,6.97
2018-01-30T13:58:41.205Z,9.37
2018-01-30T14:01:09.593Z,7.87
2018-01-30T14:03:37.913Z,8.80
2018-01-30T14:06:06.256Z,7.70
2018-01-30T14:08:34.581Z,6.70
2018-01-30T14:11:02.921Z,7.87
2018-01-30T14:13:31.245Z,7.13
2018-01-30T14:16:00.477Z,8.13
2018-01-30T14:18:28.821Z,6.62
2018-01-30T14:20:57.145Z,7.53
2018-01-30T14:23:31.008Z,7.50
2018-01-30T14:26:00.228Z,6.70
2018-01-30T14:28:29.049Z,8.13
2018-01-30T14:30:57.380Z,7.87
2018-01-30T14:33:26.322Z,6.80
2018-01-30T14:35:54.641Z,7.73
2018-01-30T14:38:22.986Z,8.27
2018-01-30T14:40:51.309Z,8.88
2018-01-30T14:43:19.650Z,8.33
2018-01-30T14:45:47.992Z,7.75
2018-01-30T14:48:16.342Z,8.75
2018-01-30T14:50:44.661Z,9.20
2018-01-30T14:53:13.953Z,8.90
2018-01-30T14:55:42.283Z,10.30
2018-01-30T14:58:10.638Z,8.00
2018-01-30T15:00:38.961Z,10.20
2018-01-30T15:03:07.308Z,9.90
2018-01-30T15:05:35.626Z,8.37
2018-01-30T15:08:06.158Z,11.10
2018-01-30T15:10:34.484Z,9.40
2018-01-30T15:13:02.830Z,9.53
2018-01-30T15:15:31.354Z,9.85
2018-01-30T15:17:59.754Z,9.70
2018-01-30T15:20:34.594Z,11.47
2018-01-30T15:23:06.849Z,9.90
2018-01-30T15:25:35.289Z,10.00
2018-01-30T15:28:03.642Z,11.03
2018-01-30T15:30:31.965Z,9.57
2018-01-30T15:33:00.305Z,10.37
2018-01-30T15:35:28.681Z,11.03
2018-01-30T15:37:57.233Z,9.57
2018-01-30T15:40:25.549Z,8.97
2018-01-30T15:42:53.895Z,8.20
2018-01-30T15:45:22.212Z,8.50
2018-01-30T15:47:50.558Z,8.68
2018-01-30T15:50:18.886Z,8.90
2018-01-30T15:52:47.225Z,8.67
2018-01-30T15:55:15.547Z,7.10
2018-01-30T15:57:45.597Z,7.82
2018-01-30T16:00:13.917Z,8.67
2018-01-30T16:02:42.270Z,8.57
2018-01-30T16:05:10.585Z,8.90
2018-01-30T16:07:38.932Z,8.77
2018-01-30T16:10:07.253Z,7.77
2018-01-30T16:12:37.580Z,8.03
2018-01-30T16:15:06.301Z,8.10
2018-01-30T16:17:34.638Z,7.57
2018-01-30T16:20:02.962Z,7.33
2018-01-30T16:22:31.308Z,6.60
2018-01-30T16:24:59.629Z,7.22
2018-01-30T16:27:27.973Z,7.03
2018-01-30T16:29:56.302Z,8.13
2018-01-30T16:32:24.650Z,7.35
2018-01-30T16:34:52.964Z,7.43
2018-01-30T16:37:21.373Z,7.32
2018-01-30T16:39:49.645Z,8.33
2018-01-30T16:42:17.965Z,8.23
2018-01-30T16:44:46.314Z,8.97
2018-01-30T16:47:14.684Z,9.27
2018-01-30T16:49:43.022Z,9.15
2018-01-30T16:52:11.347Z,8.93
2018-01-30T16:54:39.697Z,10.65
2018-01-30T16:57:08.017Z,9.43
2018-01-30T16:59:36.361Z,9.80
2018-01-30T17:02:11.934Z,10.43
2018-01-30T17:04:48.339Z,10.70
2018-01-30T17:07:25.848Z,11.23
2018-01-30T17:09:56.163Z,12.73
2018-01-30T17:12:28.485Z,11.37
2018-01-30T17:14:56.825Z,9.80
2018-01-30T17:17:26.126Z,10.93
2018-01-30T17:19:55.869Z,11.15
2018-01-30T17:22:24.194Z,9.90
2018-01-30T17:24:52.536Z,10.23
2018-01-30T17:27:20.865Z,9.60
2018-01-30T17:29:49.205Z,9.30
2018-01-30T17:32:17.533Z,10.88
2018-01-30T17:34:45.882Z,11.70
2018-01-30T17:37:14.206Z,13.33
2018-01-30T17:39:43.457Z,15.63
2018-01-30T17:42:11.809Z,17.30
2018-01-30T17:44:40.153Z,20.23
2018-01-30T17:47:08.490Z,17.43
2018-01-30T17:49:36.829Z,12.95
2018-01-30T17:52:05.158Z,10.20
2018-01-30T17:54:33.510Z,12.47
2018-01-30T17:57:01.833Z,10.90
2018-01-30T17:59:30.180Z,10.52
2018-01-30T18:01:58.505Z,10.93
2018-01-30T18:04:26.858Z,11.20
2018-01-30T18:06:55.215Z,12.40
2018-01-30T18:09:23.551Z,12.40
2018-01-30T18:11:51.961Z,13.05
2018-01-30T18:14:20.310Z,14.13
2018-01-30T18:16:49.634Z,12.67
2018-01-30T18:19:18.921Z,14.05
2018-01-30T18:21:47.249Z,12.60
2018-01-30T18:24:16.260Z,11.97
2018-01-30T18:26:45.510Z,13.97
2018-01-30T18:29:13.854Z,13.27
2018-01-30T18:31:42.176Z,13.17
2018-01-30T18:34:10.546Z,14.00
2018-01-30T18:36:39.825Z,15.07
2018-01-30T18:39:08.177Z,14.15
2018-01-30T18:41:36.562Z,15.73
2018-01-30T18:44:04.914Z,15.37
2018-01-30T18:46:33.258Z,15.33
2018-01-30T18:49:01.610Z,14.50
2018-01-30T18:51:29.945Z,15.20
2018-01-30T18:53:58.302Z,14.53
2018-01-30T18:56:26.635Z,14.87
2018-01-30T18:58:55.025Z,13.17
2018-01-30T19:01:23.345Z,12.90
2018-01-30T19:03:51.693Z,12.90
2018-01-30T19:06:20.027Z,11.13
2018-01-30T19:08:48.381Z,13.10
2018-01-30T19:11:16.744Z,14.35
2018-01-30T19:13:45.082Z,13.70
2018-01-30T19:16:13.433Z,11.10
2018-01-30T19:18:41.765Z,13.20
2018-01-30T19:21:10.114Z,12.30
2018-01-30T19:23:38.446Z,13.70
2018-01-30T19:26:06.797Z,12.33
2018-01-30T19:28:35.125Z,14.40
2018-01-30T19:31:03.483Z,14.03
2018-01-30T19:33:31.825Z,13.10
2018-01-30T19:36:00.171Z,14.40
2018-01-30T19:38:28.824Z,16.35
2018-01-30T19:41:03.758Z,14.75
2018-01-30T19:43:32.122Z,16.03
2018-01-30T19:46:00.623Z,15.70
2018-01-30T19:48:34.970Z,16.07
2018-01-30T19:51:03.319Z,17.20
2018-01-30T19:53:31.644Z,16.45
2018-01-30T19:55:59.988Z,16.43
2018-01-30T19:58:28.318Z,14.52
2018-01-30T20:00:56.674Z,16.85
2018-01-30T20:03:24.996Z,17.23
2018-01-30T20:05:53.466Z,14.27
2018-01-30T20:08:21.795Z,15.63
2018-01-30T20:10:50.151Z,17.67
2018-01-30T20:13:18.469Z,15.43
2018-01-30T20:15:47.927Z,15.80
2018-01-30T20:18:21.185Z,17.60
2018-01-30T20:20:49.575Z,15.85
2018-01-30T20:23:23.443Z,17.53
2018-01-30T20:25:58.055Z,18.20
2018-01-30T20:28:31.907Z,15.60
2018-01-30T20:31:00.261Z,15.60
2018-01-30T20:33:28.625Z,15.60
2018-01-30T20:35:56.973Z,16.15
2018-01-30T20:38:25.297Z,15.67
2018-01-30T20:40:53.654Z,16.93
2018-01-30T20:43:26.621Z,14.90
2018-01-30T20:45:55.397Z,15.03
2018-01-30T20:48:24.884Z,14.80
2018-01-30T20:50:54.765Z,14.53
2018-01-30T20:53:25.278Z,15.15
2018-01-30T20:55:56.603Z,14.53
2018-01-30T20:58:24.928Z,16.03
2018-01-30T21:01:01.126Z,13.50
2018-01-30T21:03:33.597Z,14.13
2018-01-30T21:06:02.710Z,14.77
2018-01-30T21:08:39.413Z,14.07
2018-01-30T21:11:24.432Z,13.67
2018-01-30T21:13:54.145Z,15.20
2018-01-30T21:16:22.579Z,14.70
2018-01-30T21:18:50.911Z,14.90
2018-01-30T21:21:19.328Z,16.10
2018-01-30T21:23:47.666Z,15.07
2018-01-30T21:26:16.052Z,15.07
2018-01-30T21:29:02.033Z,14.70
2018-01-30T21:34:29.438Z,15.73
2018-01-30T21:37:03.769Z,15.18
2018-01-30T21:39:33.868Z,15.48
2018-01-30T21:42:03.034Z,15.20
2018-01-30T21:44:36.292Z,15.00
2018-01-30T21:47:04.813Z,16.37
2018-01-30T21:49:33.351Z,16.40
2018-01-30T21:52:01.782Z,14.80
2018-01-30T21:54:30.116Z,16.43
2018-01-30T21:56:58.417Z,16.60
2018-01-30T21:59:26.745Z,17.33
2018-01-30T22:01:55.094Z,18.00
2018-01-30T22:04:23.417Z,16.70
2018-01-30T22:06:51.766Z,17.70
2018-01-30T22:09:20.097Z,17.42
2018-01-30T22:11:48.441Z,16.90
2018-01-30T22:14:16.779Z,16.23
2018-01-30T22:16:45.125Z,16.03
2018-01-30T22:19:13.615Z,15.05
2018-01-30T22:21:42.055Z,15.70
2018-01-30T22:24:10.370Z,14.13
2018-01-30T22:26:39.628Z,14.32
2018-01-30T22:29:07.953Z,14.60
2018-01-30T22:31:36.309Z,14.73
2018-01-30T22:34:12.047Z,15.40
2018-01-30T22:36:51.032Z,13.80
2018-01-30T22:39:26.473Z,13.73
2018-01-30T22:41:59.876Z,15.27
2018-01-30T22:44:30.055Z,13.27
2018-01-30T22:46:56.637Z,13.10
